Airfield :
LOGIN :

Register | Disclaimer

   EN    FR    IT 

 










Legend :    VFR   Marginal VFR   IFR   Intensive IFR   Very Intensive IFR
Visi :
Ceiling :
>= 8 km
>= 3000ft
5 to 8 km
1000 to 3000 ft
1500m to 5 km
500 to 1000 ft
800 to 1500m
200 to 500 ft
< 800m
< 200 ft
Symbols :   Thunderstorms  Fog  Heavy snow  Heavy precipitations  Wind > 20 kt
SIGMETs :     Misc.  Thunderstorms  Icing  Turbulence  Mountain Waves  Volcanic Ashes






- Airport Elevation : 204 ft
- IATA code : AGF


LFBA - Agen

CURRENT METAR :
  • 012300Z AUTO 13007KT 9999 -RA ///TCU 15/12 Q0997

EXPIRED METARs :
  • 012230Z AUTO 13010KT CAVOK 15/13 Q0998
  • 012200Z AUTO 14011KT CAVOK 15/13 Q0998
  • 012130Z AUTO 12006KT 090V170 CAVOK 13/12 Q1000
  • 012100Z AUTO 12007KT CAVOK 13/12 Q1001
  • 012030Z AUTO 11005KT CAVOK 13/11 Q1002 BECMG 12016KT RA

TAF TAF LFBA
Valid from the 01 at 15:00 until the 02 at 00:00 UTC


011400Z 0115/0124 20005KT 9999 FEW030 SCT050 BKN065
TEMPO 0115/0118 SCT025TCU
PROB30
TEMPO 0115/0118 27015G25KT -SHRA BKN025TCU
FM012000 16006KT 9999 BKN110
BECMG 0121/0123 12016KT RA



MET'MAP, your aeronautical weather chart ! - Copyright ORBIFLY December 2007 - Disclaimer

ORBIFLY MET'MAP TEAM :

Programming & Development : Alexandra Zaïnal
Concept & original design : Baudouin d'Aumeries
Assistance for programming : Marc-Olivier Méhu
Technical & hardware support : Manuel Goepfert

Contact : metmap@orbifly.com




SOURCES & CREDITS :

   NOAA